Time;durP1;ratioP1;P1;durP2;ratioP2;P2;SDS_P1;SDS_P2;PMS_P1;PMS_P2;Temp;Humidity;BMP_temperature;BMP_pressure;BME280_temperature;BME280_humidity;BME280_pressure;Samples;Min_cycle;Max_cycle;Signal;HPM_P1;HPM_P2
2022/07/04 00:00:43;;;;;;;4.65;2.13;;;12.80;99.90;;;;;;5077813;28;20525;-70
2022/07/04 00:03:08;;;;;;;4.22;1.83;;;12.80;99.90;;;;;;5074175;28;20123;-70
2022/07/04 00:05:34;;;;;;;18.50;2.70;;;12.80;99.90;;;;;;5072561;28;20119;-70
2022/07/04 00:08:00;;;;;;;7.28;2.13;;;12.80;99.90;;;;;;5062544;28;20044;-70
2022/07/04 00:10:25;;;;;;;3.78;2.05;;;12.80;99.90;;;;;;5057931;28;20048;-70
2022/07/04 00:12:51;;;;;;;3.25;1.83;;;12.80;99.90;;;;;;5075504;28;20036;-70
2022/07/04 00:15:17;;;;;;;4.28;2.20;;;12.80;99.90;;;;;;5068376;28;20083;-71
2022/07/04 00:17:43;;;;;;;5.13;2.33;;;12.80;99.90;;;;;;5074728;28;20079;-70
2022/07/04 00:20:10;;;;;;;5.32;2.50;;;12.70;99.90;;;;;;5075281;28;20101;-70
2022/07/04 00:22:36;;;;;;;3.75;2.08;;;12.70;99.90;;;;;;5057508;28;20469;-70
2022/07/04 00:25:01;;;;;;;4.05;2.22;;;12.70;99.90;;;;;;5071458;28;20059;-70
2022/07/04 00:27:27;;;;;;;6.03;2.70;;;12.60;99.90;;;;;;5077297;28;20047;-70
2022/07/04 00:29:53;;;;;;;3.05;2.00;;;12.60;99.90;;;;;;5064039;28;20131;-71
2022/07/04 00:32:19;;;;;;;4.93;2.22;;;12.60;99.90;;;;;;5074737;28;20491;-70
2022/07/04 00:34:44;;;;;;;5.60;2.13;;;12.60;99.90;;;;;;5057195;28;20055;-70
2022/07/04 00:37:10;;;;;;;3.65;2.00;;;12.50;99.90;;;;;;5061329;28;20048;-70
2022/07/04 00:39:36;;;;;;;2.60;1.77;;;12.50;99.90;;;;;;5040935;28;20357;-70
2022/07/04 00:42:02;;;;;;;4.10;2.35;;;12.40;99.90;;;;;;5074880;28;20372;-70
2022/07/04 00:44:27;;;;;;;4.55;2.20;;;12.50;99.90;;;;;;5067470;28;20076;-72
2022/07/04 00:46:53;;;;;;;5.05;2.53;;;12.50;99.90;;;;;;5060147;28;20044;-70
2022/07/04 00:49:19;;;;;;;8.95;2.70;;;12.50;99.90;;;;;;5057598;28;20040;-70
2022/07/04 00:51:45;;;;;;;4.45;2.40;;;12.50;99.90;;;;;;5075009;28;20060;-70
2022/07/04 00:54:12;;;;;;;3.95;2.60;;;12.50;99.90;;;;;;5057114;28;20052;-70
2022/07/04 00:56:40;;;;;;;6.43;2.80;;;12.50;99.90;;;;;;5056757;28;20040;-70
2022/07/04 00:59:07;;;;;;;3.85;2.53;;;12.50;99.90;;;;;;5071188;28;20460;-71
2022/07/04 01:01:34;;;;;;;4.20;2.50;;;12.50;99.90;;;;;;5094653;28;20058;-70
2022/07/04 01:04:02;;;;;;;3.60;2.10;;;12.50;99.90;;;;;;5092247;28;20046;-70
2022/07/04 01:06:28;;;;;;;3.78;2.35;;;12.50;99.90;;;;;;5094860;28;20457;-70
2022/07/04 01:08:54;;;;;;;4.53;2.22;;;12.50;99.90;;;;;;5094818;28;20032;-70
2022/07/04 01:11:20;;;;;;;5.60;2.35;;;12.50;99.90;;;;;;5069101;28;20048;-70
2022/07/04 01:13:45;;;;;;;9.52;2.47;;;12.50;99.90;;;;;;5056320;28;20461;-70
2022/07/04 01:16:12;;;;;;;5.53;3.08;;;12.40;99.90;;;;;;5066348;28;20105;-70
2022/07/04 01:18:38;;;;;;;4.50;2.67;;;12.40;99.90;;;;;;5068844;28;20044;-70
2022/07/04 01:21:04;;;;;;;4.80;2.88;;;12.40;99.90;;;;;;5070150;28;20045;-70
2022/07/04 01:23:30;;;;;;;6.13;2.92;;;12.50;99.90;;;;;;5065485;28;20465;-70
2022/07/04 01:25:57;;;;;;;4.38;2.65;;;12.40;99.90;;;;;;5069456;28;20044;-70
2022/07/04 01:28:24;;;;;;;3.85;2.72;;;12.40;99.90;;;;;;5075422;28;20036;-70
2022/07/04 01:30:50;;;;;;;4.38;2.65;;;12.40;99.90;;;;;;5068218;28;20048;-70
2022/07/04 01:33:17;;;;;;;4.07;2.45;;;12.30;99.90;;;;;;5073707;28;20457;-70
2022/07/04 01:35:44;;;;;;;4.85;2.97;;;12.30;99.90;;;;;;5074409;28;20044;-70
2022/07/04 01:38:09;;;;;;;7.50;3.17;;;12.30;99.90;;;;;;5041676;28;20049;-70
2022/07/04 01:40:35;;;;;;;3.72;2.42;;;12.30;99.90;;;;;;5094387;28;20040;-70
2022/07/04 01:43:01;;;;;;;4.40;2.47;;;12.30;99.90;;;;;;5094131;28;20460;-71
2022/07/04 01:45:26;;;;;;;7.75;2.95;;;12.20;99.90;;;;;;5069261;28;20056;-70
2022/07/04 01:47:52;;;;;;;4.05;2.72;;;12.20;99.90;;;;;;5058310;28;20052;-70
2022/07/04 01:50:18;;;;;;;4.28;2.53;;;12.20;99.90;;;;;;5069446;28;20051;-70
2022/07/04 01:52:43;;;;;;;4.22;1.92;;;12.30;99.90;;;;;;5039702;28;20045;-70
2022/07/04 01:55:10;;;;;;;4.55;2.80;;;12.10;99.90;;;;;;5061878;28;20479;-70
2022/07/04 01:57:37;;;;;;;3.65;2.40;;;12.10;99.90;;;;;;5055947;28;20059;-71
2022/07/04 02:02:50;;;;;;;6.03;3.17;;;12.10;99.90;;;;;;5056268;28;20143;-70
2022/07/04 02:05:16;;;;;;;4.70;2.78;;;12.10;99.90;;;;;;5064124;28;20123;-70
2022/07/04 02:07:42;;;;;;;4.13;2.47;;;12.00;99.90;;;;;;5071025;28;20449;-70
2022/07/04 02:10:08;;;;;;;4.50;2.83;;;12.10;99.90;;;;;;5063798;28;20433;-71
2022/07/04 02:15:17;;;;;;;5.30;2.60;;;12.10;99.90;;;;;;5077480;28;20048;-70
2022/07/04 02:17:43;;;;;;;3.92;2.45;;;12.10;99.90;;;;;;5077119;28;20040;-70
2022/07/04 02:20:09;;;;;;;4.53;2.78;;;12.00;99.90;;;;;;5073265;28;20445;-70
2022/07/04 02:22:35;;;;;;;4.63;2.88;;;12.00;99.90;;;;;;5060232;28;20044;-71
2022/07/04 02:25:00;;;;;;;4.13;2.78;;;12.00;99.90;;;;;;5059935;28;20056;-70
2022/07/04 02:27:26;;;;;;;4.07;3.08;;;12.00;99.90;;;;;;5077314;28;20044;-70
2022/07/04 02:29:51;;;;;;;4.53;2.67;;;11.90;99.90;;;;;;5076895;28;20353;-70
2022/07/04 02:32:17;;;;;;;4.75;3.08;;;11.90;99.90;;;;;;5076009;28;20048;-70
2022/07/04 02:34:43;;;;;;;4.07;2.80;;;11.90;99.90;;;;;;5078266;28;20066;-70
2022/07/04 02:37:09;;;;;;;4.75;3.15;;;11.90;99.90;;;;;;5060688;28;20059;-70
2022/07/04 02:39:35;;;;;;;5.30;3.42;;;11.90;99.90;;;;;;5060137;28;20048;-70
2022/07/04 02:42:01;;;;;;;4.80;3.55;;;11.90;99.90;;;;;;5074487;28;20078;-70
2022/07/04 02:44:26;;;;;;;7.00;3.33;;;11.90;99.90;;;;;;5059758;28;20450;-69
2022/07/04 02:46:52;;;;;;;6.18;3.33;;;11.90;99.90;;;;;;5074651;28;20116;-70
2022/07/04 02:49:18;;;;;;;6.07;2.92;;;11.90;99.90;;;;;;5075747;28;20463;-70
2022/07/04 02:51:43;;;;;;;4.93;3.67;;;11.90;99.90;;;;;;5097244;28;20080;-70
2022/07/04 02:54:09;;;;;;;7.75;3.80;;;11.90;99.90;;;;;;5096537;28;20052;-70
2022/07/04 02:56:34;;;;;;;8.60;4.07;;;11.90;99.90;;;;;;5079671;28;20055;-69
2022/07/04 02:59:00;;;;;;;7.53;3.22;;;11.90;99.90;;;;;;5097056;28;20047;-70
2022/07/04 03:01:26;;;;;;;7.20;3.40;;;11.90;99.90;;;;;;5072846;28;20384;-70
2022/07/04 03:03:52;;;;;;;4.82;3.38;;;11.90;99.90;;;;;;5076672;28;20118;-70
2022/07/04 03:06:18;;;;;;;5.88;3.88;;;11.90;99.90;;;;;;5059133;28;20056;-70
2022/07/04 03:08:44;;;;;;;6.60;3.97;;;11.90;99.90;;;;;;5076604;28;20131;-70
2022/07/04 03:11:09;;;;;;;5.72;3.70;;;11.80;99.90;;;;;;5062503;28;20055;-70
2022/07/04 03:13:36;;;;;;;5.95;3.60;;;11.80;99.90;;;;;;5065623;28;20058;-70
2022/07/04 03:16:02;;;;;;;6.75;3.15;;;11.80;99.90;;;;;;5076657;28;20054;-70
2022/07/04 03:18:28;;;;;;;6.47;3.78;;;11.80;99.90;;;;;;5071224;28;20444;-70
2022/07/04 03:20:53;;;;;;;4.50;2.58;;;11.80;99.90;;;;;;5059122;28;20102;-70
2022/07/04 03:23:19;;;;;;;5.50;3.42;;;11.80;99.90;;;;;;5058042;28;20048;-70
2022/07/04 03:25:45;;;;;;;7.50;3.83;;;11.80;99.90;;;;;;5042179;28;20088;-70
2022/07/04 03:28:10;;;;;;;6.30;3.70;;;11.80;99.90;;;;;;5076133;28;20099;-70
2022/07/04 03:30:36;;;;;;;5.38;3.78;;;11.80;99.90;;;;;;5058743;28;20083;-70
2022/07/04 03:33:02;;;;;;;6.78;3.30;;;11.80;99.90;;;;;;5067488;28;20433;-69
2022/07/04 03:35:28;;;;;;;5.72;3.20;;;11.80;99.90;;;;;;5058115;28;20059;-70
2022/07/04 03:37:55;;;;;;;7.35;3.78;;;11.80;99.90;;;;;;5067820;28;20053;-70
2022/07/04 03:40:22;;;;;;;6.43;3.83;;;11.80;99.90;;;;;;5074462;28;20131;-70
2022/07/04 03:42:48;;;;;;;5.43;3.60;;;11.80;99.90;;;;;;5075662;28;20458;-70
2022/07/04 03:45:14;;;;;;;7.55;3.70;;;11.80;99.90;;;;;;5074780;28;20076;-70
2022/07/04 03:47:40;;;;;;;6.38;3.53;;;11.80;99.90;;;;;;5062797;28;20072;-69
2022/07/04 03:50:05;;;;;;;5.30;3.47;;;11.80;99.90;;;;;;5071514;28;20051;-70
2022/07/04 03:52:32;;;;;;;6.07;3.33;;;11.80;99.90;;;;;;5076084;28;20060;-70
2022/07/04 03:54:57;;;;;;;6.13;3.63;;;11.80;99.90;;;;;;5065300;28;20044;-69
2022/07/04 03:57:23;;;;;;;5.47;3.30;;;11.80;99.90;;;;;;5065141;28;20059;-70
2022/07/04 03:59:49;;;;;;;6.88;3.60;;;11.80;99.90;;;;;;5058017;28;20055;-70
2022/07/04 04:02:15;;;;;;;6.20;4.20;;;11.90;99.90;;;;;;5067051;28;20041;-70
2022/07/04 04:07:25;;;;;;;5.38;3.33;;;11.90;99.90;;;;;;5057428;28;20048;-70
2022/07/04 04:09:51;;;;;;;5.57;3.65;;;12.00;99.90;;;;;;5064057;28;20044;-70
2022/07/04 04:12:16;;;;;;;8.85;3.95;;;12.00;99.90;;;;;;5073637;28;20044;-70
2022/07/04 04:14:42;;;;;;;5.25;3.80;;;12.10;99.90;;;;;;5071463;28;20330;-70
2022/07/04 04:17:07;;;;;;;6.47;4.10;;;12.00;99.90;;;;;;5061327;28;20055;-69
2022/07/04 04:19:34;;;;;;;5.50;3.35;;;12.10;99.90;;;;;;5070333;28;20076;-70
2022/07/04 04:22:00;;;;;;;6.80;4.18;;;12.20;99.90;;;;;;5075727;28;20123;-70
2022/07/04 04:24:25;;;;;;;8.95;5.10;;;12.20;99.90;;;;;;5077420;28;20531;-70
2022/07/04 04:26:51;;;;;;;9.38;4.68;;;12.30;99.90;;;;;;5074625;28;20045;-69
2022/07/04 04:29:17;;;;;;;5.57;3.75;;;12.30;99.90;;;;;;5074797;28;20132;-69
2022/07/04 04:31:42;;;;;;;6.50;4.10;;;12.40;99.90;;;;;;5057557;28;20056;-70
2022/07/04 04:34:08;;;;;;;9.27;4.43;;;12.40;99.90;;;;;;5056757;28;20421;-70
2022/07/04 04:36:34;;;;;;;7.75;4.60;;;12.50;99.90;;;;;;5075011;28;20041;-70
2022/07/04 04:38:59;;;;;;;10.85;5.10;;;12.50;99.90;;;;;;5081614;28;20445;-70
2022/07/04 04:41:25;;;;;;;8.50;4.10;;;12.60;99.90;;;;;;5074219;28;20132;-69
2022/07/04 04:43:51;;;;;;;7.57;4.68;;;12.70;99.90;;;;;;5074219;28;20067;-69
2022/07/04 04:46:16;;;;;;;7.10;4.60;;;12.80;99.90;;;;;;5074968;28;20074;-69
2022/07/04 04:48:42;;;;;;;6.88;4.05;;;13.00;99.90;;;;;;5073891;28;20463;-70
2022/07/04 04:51:07;;;;;;;11.45;4.35;;;13.10;99.90;;;;;;5076666;28;20040;-69
2022/07/04 04:53:33;;;;;;;7.00;4.30;;;13.30;99.90;;;;;;5060485;28;20058;-69
2022/07/04 04:56:00;;;;;;;8.40;4.78;;;13.50;99.90;;;;;;5077196;28;20520;-69
2022/07/04 04:58:25;;;;;;;8.32;5.13;;;13.70;99.90;;;;;;5095198;28;20135;-69
2022/07/04 05:00:51;;;;;;;8.00;5.18;;;13.80;99.90;;;;;;5077580;28;20040;-70
2022/07/04 05:03:17;;;;;;;12.85;5.07;;;14.00;99.90;;;;;;5093415;28;20055;-70
2022/07/04 05:05:43;;;;;;;8.23;4.68;;;14.10;99.90;;;;;;5076264;28;20048;-70
2022/07/04 05:08:09;;;;;;;10.95;4.88;;;14.20;99.90;;;;;;5094526;28;20058;-70
2022/07/04 05:10:35;;;;;;;6.68;4.07;;;14.30;99.90;;;;;;5094852;28;20044;-70
2022/07/04 05:13:00;;;;;;;8.40;4.97;;;14.30;99.90;;;;;;5094555;28;20066;-70
2022/07/04 05:15:29;;;;;;;8.77;5.72;;;14.40;99.90;;;;;;5096156;28;20089;-68
2022/07/04 05:17:54;;;;;;;9.48;5.80;;;14.70;99.90;;;;;;5076946;28;20047;-70
2022/07/04 05:20:20;;;;;;;7.43;5.32;;;15.80;99.90;;;;;;5076852;28;20473;-70
2022/07/04 05:22:45;;;;;;;7.38;4.45;;;17.30;99.90;;;;;;5063817;28;20110;-70
2022/07/04 05:25:11;;;;;;;7.20;4.43;;;18.80;99.90;;;;;;5057279;28;20141;-70
2022/07/04 05:27:37;;;;;;;6.43;4.05;;;20.00;99.90;;;;;;5057381;28;20049;-70
2022/07/04 05:30:04;;;;;;;6.20;3.50;;;21.20;99.90;;;;;;5057159;28;20094;-70
2022/07/04 05:32:29;;;;;;;5.50;3.20;;;22.10;99.90;;;;;;5074424;28;20487;-72
2022/07/04 05:34:56;;;;;;;5.90;3.15;;;22.80;99.90;;;;;;5083527;28;20036;-71
2022/07/04 05:37:25;;;;;;;5.75;3.45;;;23.40;99.90;;;;;;5070433;28;20052;-70
2022/07/04 05:39:50;;;;;;;6.50;3.22;;;24.20;99.90;;;;;;5087377;28;20057;-71
2022/07/04 05:42:17;;;;;;;8.02;3.50;;;24.60;99.90;;;;;;5096955;28;20130;-71
2022/07/04 05:44:42;;;;;;;6.13;2.80;;;25.00;99.90;;;;;;5097040;28;20051;-70
2022/07/04 05:47:08;;;;;;;5.80;2.80;;;25.40;99.90;;;;;;5117779;28;20190;-71
2022/07/04 05:49:34;;;;;;;5.55;2.97;;;25.70;99.90;;;;;;5118398;28;20043;-71
2022/07/04 05:51:59;;;;;;;6.47;2.85;;;25.90;99.90;;;;;;5106759;28;20044;-72
2022/07/04 05:54:25;;;;;;;7.40;2.75;;;26.40;99.90;;;;;;5073287;28;20054;-71
2022/07/04 05:56:50;;;;;;;5.60;2.45;;;26.70;99.90;;;;;;5080599;28;20105;-71
2022/07/04 05:59:16;;;;;;;4.22;2.17;;;27.10;98.70;;;;;;5080604;28;20040;-71
2022/07/04 06:01:42;;;;;;;6.65;2.47;;;27.10;98.90;;;;;;5080095;28;20040;-72
2022/07/04 06:04:07;;;;;;;4.47;2.30;;;27.50;98.10;;;;;;5076165;28;20434;-71
2022/07/04 06:06:33;;;;;;;5.60;2.30;;;27.80;97.80;;;;;;5060341;28;20056;-71
2022/07/04 06:08:59;;;;;;;6.35;2.42;;;28.00;97.40;;;;;;5072890;28;20079;-71
2022/07/04 06:11:25;;;;;;;4.47;2.28;;;28.20;97.10;;;;;;5063722;28;20128;-71
2022/07/04 06:13:50;;;;;;;5.40;2.20;;;28.30;96.90;;;;;;5059804;28;20048;-72
2022/07/04 06:16:16;;;;;;;4.75;2.10;;;28.60;96.10;;;;;;5077737;28;20368;-71
2022/07/04 06:18:43;;;;;;;5.38;2.22;;;27.90;96.40;;;;;;5060015;28;20052;-71
2022/07/04 06:21:09;;;;;;;4.70;2.10;;;27.70;96.70;;;;;;5059959;28;20056;-71
2022/07/04 06:23:35;;;;;;;5.13;2.30;;;27.40;95.80;;;;;;5059845;28;20040;-71
2022/07/04 06:26:01;;;;;;;7.05;2.45;;;27.90;97.00;;;;;;5059448;28;20076;-71
2022/07/04 06:28:27;;;;;;;5.80;2.15;;;28.40;96.50;;;;;;5077066;28;20041;-71
2022/07/04 06:30:53;;;;;;;5.30;2.28;;;29.20;96.30;;;;;;5059323;28;20049;-72
2022/07/04 06:33:19;;;;;;;5.68;2.25;;;29.60;96.00;;;;;;5073248;28;20109;-70
2022/07/04 06:35:44;;;;;;;6.45;2.08;;;29.60;94.50;;;;;;5076679;28;20098;-70
2022/07/04 06:38:12;;;;;;;5.05;1.95;;;29.50;94.70;;;;;;5059848;28;20052;-69
2022/07/04 06:40:38;;;;;;;3.97;1.85;;;30.20;94.40;;;;;;5068750;28;20509;-69
2022/07/04 06:43:04;;;;;;;5.70;2.00;;;30.40;94.40;;;;;;5097134;28;20036;-72
2022/07/04 06:45:30;;;;;;;5.32;2.00;;;29.80;94.20;;;;;;5061893;28;20072;-72
2022/07/04 06:47:55;;;;;;;7.30;1.80;;;29.80;94.20;;;;;;5059071;28;20056;-72
2022/07/04 06:50:21;;;;;;;3.72;1.70;;;29.90;94.20;;;;;;5059169;28;20048;-71
2022/07/04 06:52:47;;;;;;;4.72;1.80;;;29.90;94.50;;;;;;5058952;28;20102;-72
2022/07/04 06:55:13;;;;;;;5.30;2.05;;;30.10;93.70;;;;;;5059073;28;20044;-71
2022/07/04 06:57:38;;;;;;;6.03;1.73;;;29.70;93.90;;;;;;5076124;28;20041;-70
2022/07/04 07:00:07;;;;;;;6.53;2.13;;;30.00;94.20;;;;;;5076445;28;20047;-71
2022/07/04 07:02:36;;;;;;;7.10;1.70;;;30.40;93.40;;;;;;5076140;28;20483;-71
2022/07/04 07:05:02;;;;;;;4.20;1.60;;;30.50;93.40;;;;;;5076668;28;20415;-71
2022/07/04 07:07:28;;;;;;;5.30;1.60;;;30.70;93.20;;;;;;5059221;28;20048;-71
2022/07/04 07:09:55;;;;;;;5.00;1.85;;;30.30;93.60;;;;;;5058610;28;20445;-71
2022/07/04 07:12:22;;;;;;;6.57;1.70;;;29.60;92.50;;;;;;5058759;28;20056;-71
2022/07/04 07:14:48;;;;;;;7.00;2.03;;;29.30;94.00;;;;;;5058685;28;20056;-72
2022/07/04 07:17:15;;;;;;;7.50;1.52;;;29.10;93.60;;;;;;5057871;28;20123;-70
2022/07/04 07:19:42;;;;;;;6.22;1.98;;;28.40;94.10;;;;;;5058431;28;20053;-70
2022/07/04 07:22:08;;;;;;;4.65;1.38;;;27.30;94.60;;;;;;5058392;28;20052;-69
2022/07/04 07:24:34;;;;;;;7.68;2.22;;;26.90;95.40;;;;;;5058613;28;20473;-69
2022/07/04 07:27:00;;;;;;;4.53;1.73;;;26.90;96.00;;;;;;5092359;28;20080;-69
2022/07/04 07:29:25;;;;;;;5.25;1.55;;;27.20;96.80;;;;;;5076268;28;20367;-69
2022/07/04 07:31:51;;;;;;;4.97;1.73;;;27.70;96.40;;;;;;5063952;28;20032;-69
2022/07/04 07:34:17;;;;;;;4.93;1.85;;;28.70;95.50;;;;;;5076646;28;20105;-69
2022/07/04 07:36:42;;;;;;;5.72;1.63;;;29.20;95.20;;;;;;5077955;28;20044;-69
2022/07/04 07:39:08;;;;;;;6.30;2.00;;;29.90;95.30;;;;;;5077334;28;20063;-69
2022/07/04 07:41:33;;;;;;;5.45;1.80;;;29.90;94.10;;;;;;5077874;28;20044;-69
2022/07/04 07:44:00;;;;;;;7.57;2.10;;;30.00;93.80;;;;;;5090454;28;20559;-70
2022/07/04 07:46:27;;;;;;;7.93;2.20;;;29.40;92.90;;;;;;5080986;28;20074;-69
2022/07/04 07:48:52;;;;;;;5.47;1.60;;;28.50;93.60;;;;;;5079933;28;20090;-69
2022/07/04 07:51:18;;;;;;;6.50;2.00;;;27.60;93.80;;;;;;5077561;28;20549;-69
2022/07/04 07:53:44;;;;;;;6.68;1.95;;;27.20;95.30;;;;;;5095346;28;20079;-69
2022/07/04 07:56:09;;;;;;;7.30;2.30;;;27.70;95.60;;;;;;5095020;28;20044;-69
2022/07/04 07:58:35;;;;;;;5.70;1.55;;;27.90;95.30;;;;;;5095139;28;20063;-69
2022/07/04 08:01:04;;;;;;;5.75;1.67;;;28.70;95.00;;;;;;5073020;28;20157;-69
2022/07/04 08:06:15;;;;;;;3.17;1.27;;;27.20;94.70;;;;;;5076225;28;20052;-70
2022/07/04 08:08:42;;;;;;;5.82;1.48;;;27.20;95.80;;;;;;5059388;28;20466;-70
2022/07/04 08:11:09;;;;;;;4.10;1.45;;;27.70;95.00;;;;;;5076528;28;20047;-69
2022/07/04 08:13:34;;;;;;;6.78;1.90;;;28.50;94.50;;;;;;5077265;28;20101;-69
2022/07/04 08:16:00;;;;;;;4.32;1.20;;;28.60;93.90;;;;;;5077084;28;20060;-69
2022/07/04 08:18:26;;;;;;;6.05;1.48;;;28.10;93.60;;;;;;5073277;28;20133;-69
2022/07/04 08:20:52;;;;;;;5.15;1.27;;;27.90;94.40;;;;;;5058155;28;20044;-69
2022/07/04 08:23:17;;;;;;;3.60;1.05;;;27.90;94.80;;;;;;5065719;28;20504;-70
2022/07/04 08:25:43;;;;;;;5.10;1.15;;;28.50;94.80;;;;;;5075031;28;20048;-69
2022/07/04 08:28:09;;;;;;;7.57;1.23;;;28.10;93.90;;;;;;5079031;28;20044;-69
2022/07/04 08:30:35;;;;;;;5.70;1.45;;;27.30;93.80;;;;;;5071101;28;20393;-69
2022/07/04 08:33:00;;;;;;;7.13;1.20;;;27.30;94.90;;;;;;5072324;28;20080;-73
2022/07/04 08:35:27;;;;;;;4.53;1.05;;;27.80;94.60;;;;;;5072726;28;20465;-71
2022/07/04 08:37:55;;;;;;;4.43;1.15;;;28.20;94.20;;;;;;5056475;28;20091;-70
2022/07/04 08:40:27;;;;;;;5.93;1.40;;;28.10;93.40;;;;;;5056861;28;20052;-70
2022/07/04 08:42:53;;;;;;;6.88;1.27;;;27.10;93.40;;;;;;5056811;28;20434;-70
2022/07/04 08:45:26;;;;;;;3.83;1.08;;;27.10;94.70;;;;;;5056551;28;20095;-70
2022/07/04 08:47:54;;;;;;;4.20;1.02;;;27.30;94.60;;;;;;5067270;28;20066;-72
2022/07/04 08:50:26;;;;;;;4.07;1.00;;;27.30;95.10;;;;;;5074566;28;20055;-70
2022/07/04 08:53:12;;;;;;;;;;;27.30;94.20;;;;;;5056782;28;20060;-70
2022/07/04 08:58:29;;;;;;;4.18;1.17;;;27.30;95.20;;;;;;5055754;28;20041;-71
2022/07/04 09:01:06;;;;;;;3.30;0.85;;;28.00;93.70;;;;;;5073631;28;20052;-71
2022/07/04 09:03:32;;;;;;;3.42;1.00;;;28.00;92.80;;;;;;5056340;28;20048;-70
2022/07/04 09:05:58;;;;;;;2.88;0.98;;;27.90;92.50;;;;;;5074057;28;20040;-70
2022/07/04 09:08:24;;;;;;;2.42;1.08;;;28.30;93.00;;;;;;5056601;28;20464;-70
2022/07/04 09:10:52;;;;;;;3.47;1.10;;;28.70;92.90;;;;;;5073647;28;20049;-70
2022/07/04 09:13:18;;;;;;;3.97;1.00;;;28.60;92.40;;;;;;5084986;28;20048;-70
2022/07/04 09:15:46;;;;;;;2.22;0.65;;;28.50;92.60;;;;;;5066167;28;20147;-69
2022/07/04 09:18:25;;;;;;;2.20;0.80;;;28.60;92.60;;;;;;5096069;28;20452;-70
2022/07/04 09:20:53;;;;;;;4.68;0.75;;;28.60;91.40;;;;;;5097342;28;20051;-71
2022/07/04 09:23:24;;;;;;;4.55;1.02;;;28.10;91.90;;;;;;5118383;28;20050;-71
2022/07/04 09:26:08;;;;;;;5.78;0.98;;;27.30;92.60;;;;;;5094745;28;20054;-71
2022/07/04 09:28:34;;;;;;;4.38;1.00;;;26.40;93.70;;;;;;5093823;28;20488;-70
2022/07/04 09:30:59;;;;;;;6.43;1.00;;;25.80;92.90;;;;;;5077265;28;20416;-68
2022/07/04 09:33:49;;;;;;;1.55;0.70;;;25.20;93.90;;;;;;5075983;28;20524;-69
2022/07/04 09:36:15;;;;;;;1.75;0.70;;;24.60;94.60;;;;;;5060024;28;20109;-68
2022/07/04 09:38:42;;;;;;;2.85;0.90;;;24.20;95.00;;;;;;5077689;28;20044;-69
2022/07/04 09:41:29;;;;;;;1.77;0.60;;;23.70;95.70;;;;;;5060067;28;20361;-69
2022/07/04 09:44:03;;;;;;;3.13;0.93;;;23.40;95.30;;;;;;5060064;28;20088;-68
2022/07/04 09:46:29;;;;;;;2.78;0.80;;;23.30;95.20;;;;;;5059643;28;20055;-68
2022/07/04 09:48:54;;;;;;;1.02;0.70;;;23.20;96.00;;;;;;5062387;28;20044;-68
2022/07/04 09:51:55;;;;;;;3.08;1.10;;;23.50;96.10;;;;;;5097436;28;20476;-68
2022/07/04 09:54:32;;;;;;;3.38;0.98;;;23.90;96.30;;;;;;5080524;28;20083;-68
2022/07/04 09:57:00;;;;;;;3.13;0.90;;;24.60;96.00;;;;;;5078586;28;20343;-69
2022/07/04 09:59:29;;;;;;;3.33;1.10;;;25.10;95.20;;;;;;5073977;28;20409;-68
2022/07/04 10:02:10;;;;;;;3.15;0.75;;;25.70;95.30;;;;;;5060164;28;20048;-68
2022/07/04 10:04:45;;;;;;;1.88;0.70;;;25.40;92.70;;;;;;5059067;28;20060;-68
2022/07/04 10:07:11;;;;;;;2.53;0.80;;;25.50;93.10;;;;;;5059497;28;20091;-68
2022/07/04 10:09:36;;;;;;;1.15;0.52;;;25.70;92.70;;;;;;5076778;28;20084;-68
2022/07/04 10:12:02;;;;;;;3.38;0.80;;;25.90;92.70;;;;;;5076733;28;20169;-69
2022/07/04 10:14:29;;;;;;;3.92;0.93;;;26.10;93.20;;;;;;5077418;28;20521;-70
2022/07/04 10:16:55;;;;;;;1.23;0.60;;;26.30;92.60;;;;;;5075487;28;20049;-69
2022/07/04 10:19:23;;;;;;;3.80;1.25;;;26.50;92.60;;;;;;5066462;28;20360;-67
2022/07/04 10:21:50;;;;;;;2.03;0.68;;;26.30;92.30;;;;;;5077221;28;20049;-67
2022/07/04 10:24:16;;;;;;;1.23;0.70;;;25.90;91.60;;;;;;5098281;28;20410;-68
2022/07/04 10:26:42;;;;;;;2.53;0.70;;;25.60;92.20;;;;;;5075092;28;20048;-68
2022/07/04 10:29:11;;;;;;;1.65;0.70;;;25.60;92.30;;;;;;5077017;28;20076;-68
2022/07/04 10:31:37;;;;;;;3.03;0.98;;;26.00;92.80;;;;;;5076337;28;20376;-68
2022/07/04 10:34:03;;;;;;;1.52;0.70;;;26.00;91.70;;;;;;5075831;28;20131;-69
2022/07/04 10:36:29;;;;;;;1.63;0.75;;;26.00;91.80;;;;;;5059125;28;20053;-69
2022/07/04 10:39:00;;;;;;;2.47;0.70;;;26.30;92.10;;;;;;5059042;28;20465;-68
2022/07/04 10:41:28;;;;;;;3.40;0.93;;;26.50;92.60;;;;;;5069039;28;20059;-68
2022/07/04 10:43:56;;;;;;;2.45;0.80;;;26.60;91.90;;;;;;5058693;28;20044;-68
2022/07/04 10:46:34;;;;;;;1.70;0.90;;;26.60;92.10;;;;;;5076624;28;20044;-69
2022/07/04 10:49:03;;;;;;;1.63;0.88;;;26.70;92.00;;;;;;5059346;28;20056;-69
2022/07/04 10:51:35;;;;;;;1.70;0.75;;;26.70;92.50;;;;;;5061337;28;20445;-71
2022/07/04 10:54:10;;;;;;;1.88;0.82;;;26.80;92.40;;;;;;5074389;28;20473;-69
2022/07/04 10:56:43;;;;;;;1.95;0.90;;;26.80;91.10;;;;;;5075785;28;20341;-69
2022/07/04 10:59:26;;;;;;;1.77;0.77;;;26.70;91.60;;;;;;5078510;28;20467;-70
2022/07/04 11:02:07;;;;;;;2.85;0.88;;;26.30;92.20;;;;;;5079508;28;20055;-71
2022/07/04 11:05:00;;;;;;;2.78;1.00;;;26.10;92.50;;;;;;5078866;28;20044;-71
2022/07/04 11:07:35;;;;;;;3.33;1.02;;;26.50;92.60;;;;;;5096491;28;20040;-71
2022/07/04 11:10:13;;;;;;;2.67;0.82;;;27.00;92.60;;;;;;5078982;28;20461;-70
2022/07/04 11:12:54;;;;;;;1.60;0.70;;;27.30;92.60;;;;;;5067375;28;20052;-71
2022/07/04 11:15:28;;;;;;;2.47;0.70;;;27.40;92.00;;;;;;5075791;28;20147;-72
2022/07/04 11:17:58;;;;;;;3.45;1.00;;;27.30;91.40;;;;;;5069097;28;20055;-72
2022/07/04 11:20:26;;;;;;;2.40;0.85;;;27.00;91.30;;;;;;5078695;28;20380;-73
2022/07/04 11:22:52;;;;;;;5.28;1.08;;;26.70;91.50;;;;;;5095838;28;20337;-73
2022/07/04 11:25:18;;;;;;;3.67;0.90;;;26.30;91.90;;;;;;5074788;28;20158;-71
2022/07/04 11:27:43;;;;;;;6.28;1.23;;;25.80;91.80;;;;;;5058453;28;20127;-73
2022/07/04 11:30:10;;;;;;;1.60;0.70;;;25.90;92.60;;;;;;5076392;28;20445;-72
2022/07/04 11:32:38;;;;;;;2.88;0.85;;;25.90;92.00;;;;;;5058636;28;20116;-72
2022/07/04 11:35:05;;;;;;;2.42;1.13;;;25.90;91.70;;;;;;5075736;28;20036;-70
2022/07/04 11:37:31;;;;;;;3.20;0.80;;;26.10;91.50;;;;;;5058491;28;20083;-71
2022/07/04 11:45:52;;;;;;;2.35;0.90;;;25.60;91.30;;;;;;5058439;28;20048;-70
2022/07/04 11:48:25;;;;;;;4.80;0.90;;;25.40;91.60;;;;;;5057977;28;20057;-70
2022/07/04 11:50:51;;;;;;;4.43;0.80;;;25.10;91.90;;;;;;5074985;28;20070;-70
2022/07/04 11:53:17;;;;;;;5.18;0.98;;;25.40;92.50;;;;;;5075272;28;20181;-69
2022/07/04 11:55:53;;;;;;;4.32;0.90;;;25.60;91.80;;;;;;5057977;28;20040;-67
2022/07/04 11:58:19;;;;;;;2.40;0.73;;;25.60;91.90;;;;;;5057971;28;20487;-67
2022/07/04 12:00:44;;;;;;;1.58;0.80;;;25.60;91.70;;;;;;5057998;28;20128;-68
2022/07/04 12:03:10;;;;;;;2.75;0.70;;;25.60;91.90;;;;;;5075170;28;20101;-70
2022/07/04 12:05:37;;;;;;;1.88;0.70;;;25.70;92.20;;;;;;5058126;28;20531;-68
2022/07/04 12:08:05;;;;;;;0.80;0.63;;;25.90;92.30;;;;;;5057597;28;20049;-68
2022/07/04 12:10:31;;;;;;;2.63;0.80;;;25.90;91.40;;;;;;5057770;28;20181;-67
2022/07/04 12:13:07;;;;;;;2.92;0.90;;;26.20;91.10;;;;;;5067533;28;20115;-67
2022/07/04 12:15:38;;;;;;;2.65;0.80;;;26.10;91.20;;;;;;5060781;28;20058;-67
2022/07/04 12:18:05;;;;;;;1.92;0.80;;;26.00;90.50;;;;;;5095271;28;20047;-68
2022/07/04 12:20:32;;;;;;;1.58;0.60;;;25.90;91.20;;;;;;5077857;28;20393;-68
2022/07/04 12:23:01;;;;;;;1.67;0.60;;;26.10;91.50;;;;;;5077714;28;20052;-68
2022/07/04 12:25:28;;;;;;;2.30;0.73;;;26.10;91.00;;;;;;5078166;28;20123;-68
2022/07/04 12:27:57;;;;;;;4.25;1.00;;;25.70;90.60;;;;;;5083207;28;20109;-69
2022/07/04 12:30:25;;;;;;;1.70;0.65;;;25.50;91.00;;;;;;5057337;28;20040;-69
2022/07/04 12:32:53;;;;;;;3.55;0.90;;;25.60;91.20;;;;;;5057531;28;20114;-68
2022/07/04 12:35:36;;;;;;;1.45;0.60;;;25.70;90.40;;;;;;5075061;28;20105;-69
2022/07/04 12:38:03;;;;;;;3.45;0.88;;;25.70;90.20;;;;;;5057282;28;20376;-68
2022/07/04 12:40:29;;;;;;;3.08;0.85;;;25.60;90.60;;;;;;5057151;28;20054;-70
2022/07/04 12:42:56;;;;;;;1.38;0.50;;;25.70;90.30;;;;;;5088458;28;20044;-69
2022/07/04 12:45:22;;;;;;;2.90;0.60;;;25.70;90.70;;;;;;5071984;28;20044;-68
2022/07/04 12:47:48;;;;;;;1.83;0.60;;;26.00;91.50;;;;;;5075771;28;20510;-69
2022/07/04 12:50:14;;;;;;;4.00;0.80;;;26.10;87.60;;;;;;5076718;28;20048;-69
2022/07/04 12:52:42;;;;;;;2.88;0.60;;;26.20;90.00;;;;;;5099023;28;20051;-70
2022/07/04 12:55:11;;;;;;;3.25;0.95;;;26.30;90.60;;;;;;5114135;28;20093;-70
2022/07/04 12:57:37;;;;;;;0.85;0.45;;;26.40;90.40;;;;;;5065113;28;20040;-69
2022/07/04 13:00:03;;;;;;;2.30;0.80;;;26.40;90.40;;;;;;5093396;28;20040;-70
2022/07/04 13:02:29;;;;;;;4.07;0.80;;;26.30;90.30;;;;;;5069951;28;20046;-70
2022/07/04 13:04:56;;;;;;;3.17;0.82;;;26.00;90.00;;;;;;5075963;28;20435;-70
2022/07/04 13:07:22;;;;;;;1.33;0.63;;;26.30;90.10;;;;;;5076676;28;20056;-70